RAM1431 GMAT-GMMN
Flight info
| Callsign | RAM1431 |
|---|---|
| Flight time | 0h 57m |
| Altitude | 22000 |
| Route | TNN DCT MOROX UR975 ADM UG850 MAK UR722 FOBAC |
| Aircraft | B738/M-SDE3FGHIRWY/LB1 |
Departure
| Time | 2026-05-05 12:39 |
|---|---|
| Airport | Tan Tan Airport (GMAT) |
Arrival
| Time | 2026-05-05 13:37 |
|---|---|
| Airport | Mohammed V International Airport (GMMN) |
| Time | Latitude | Longitude | Altitude | Speed | Heading |
|---|---|---|---|---|---|
| 2026-05-05 12:21 | 28.44542 | -11.15989 | 672 ft | 0 kts | 76° |
| 2026-05-05 12:35 | 28.44548 | -11.15985 | 647 ft | 2 kts | 21° |
| 2026-05-05 12:35 | 28.44567 | -11.15997 | 644 ft | 5 kts | 313° |
| 2026-05-05 12:35 | 28.44607 | -11.16014 | 643 ft | 7 kts | 334° |
| 2026-05-05 12:35 | 28.44635 | -11.16059 | 644 ft | 7 kts | 300° |
| 2026-05-05 12:36 | 28.44658 | -11.16107 | 645 ft | 7 kts | 299° |
| 2026-05-05 12:36 | 28.44680 | -11.16159 | 647 ft | 8 kts | 282° |
| 2026-05-05 12:36 | 28.44666 | -11.16219 | 646 ft | 8 kts | 233° |
| 2026-05-05 12:36 | 28.44599 | -11.16263 | 647 ft | 15 kts | 207° |
| 2026-05-05 12:37 | 28.44478 | -11.16336 | 647 ft | 24 kts | 208° |
| 2026-05-05 12:37 | 28.44314 | -11.16434 | 647 ft | 28 kts | 207° |
| 2026-05-05 12:37 | 28.44138 | -11.16540 | 644 ft | 28 kts | 208° |
| 2026-05-05 12:37 | 28.43970 | -11.16639 | 643 ft | 26 kts | 207° |
| 2026-05-05 12:38 | 28.43856 | -11.16755 | 643 ft | 20 kts | 233° |
| 2026-05-05 12:38 | 28.43808 | -11.16745 | 645 ft | 8 kts | 67° |
| 2026-05-05 12:38 | 28.43834 | -11.16720 | 644 ft | 0 kts | 27° |
| 2026-05-05 12:38 | 28.43835 | -11.16719 | 644 ft | 0 kts | 27° |
| 2026-05-05 12:39 | 28.43940 | -11.16654 | 641 ft | 51 kts | 28° |
| 2026-05-05 12:39 | 28.44480 | -11.16333 | 647 ft | 121 kts | 28° |
| 2026-05-05 12:39 | 28.45371 | -11.15757 | 825 ft | 162 kts | 31° |
| 2026-05-05 12:39 | 28.46320 | -11.15124 | 1723 ft | 158 kts | 31° |
| 2026-05-05 12:40 | 28.47043 | -11.14175 | 2440 ft | 176 kts | 69° |
| 2026-05-05 12:40 | 28.46987 | -11.12649 | 2695 ft | 211 kts | 102° |
| 2026-05-05 12:40 | 28.46848 | -11.10987 | 3109 ft | 221 kts | 74° |
| 2026-05-05 12:40 | 28.47560 | -11.09362 | 3306 ft | 238 kts | 53° |
| 2026-05-05 12:41 | 28.48553 | -11.07730 | 3580 ft | 262 kts | 54° |
| 2026-05-05 12:41 | 28.49592 | -11.05968 | 4202 ft | 274 kts | 55° |
| 2026-05-05 12:41 | 28.50643 | -11.04095 | 4855 ft | 286 kts | 58° |
| 2026-05-05 12:41 | 28.51669 | -11.02154 | 5706 ft | 288 kts | 58° |
| 2026-05-05 12:42 | 28.52679 | -11.00164 | 6490 ft | 293 kts | 59° |
| 2026-05-05 12:42 | 28.53683 | -10.98121 | 7166 ft | 299 kts | 60° |
| 2026-05-05 12:42 | 28.54689 | -10.96024 | 7859 ft | 304 kts | 60° |
| 2026-05-05 12:42 | 28.55699 | -10.93881 | 8556 ft | 310 kts | 61° |
| 2026-05-05 12:43 | 28.56720 | -10.91690 | 9284 ft | 316 kts | 61° |
| 2026-05-05 12:43 | 28.57751 | -10.89456 | 10008 ft | 321 kts | 61° |
| 2026-05-05 12:43 | 28.58803 | -10.87163 | 10441 ft | 337 kts | 61° |
| 2026-05-05 12:43 | 28.59927 | -10.84706 | 10593 ft | 361 kts | 61° |
| 2026-05-05 12:44 | 28.61113 | -10.82105 | 10927 ft | 377 kts | 62° |
| 2026-05-05 12:44 | 28.62331 | -10.79425 | 11501 ft | 384 kts | 62° |
| 2026-05-05 12:44 | 28.63566 | -10.76701 | 12136 ft | 390 kts | 61° |
| 2026-05-05 12:44 | 28.64818 | -10.73939 | 12755 ft | 396 kts | 62° |
| 2026-05-05 12:45 | 28.66090 | -10.71130 | 13396 ft | 402 kts | 61° |
| 2026-05-05 12:45 | 28.67378 | -10.68285 | 14017 ft | 408 kts | 61° |
| 2026-05-05 12:45 | 28.68684 | -10.65396 | 14661 ft | 413 kts | 61° |
| 2026-05-05 12:45 | 28.70008 | -10.62468 | 15252 ft | 419 kts | 62° |
| 2026-05-05 12:46 | 28.71350 | -10.59498 | 15906 ft | 424 kts | 62° |
| 2026-05-05 12:46 | 28.72707 | -10.56492 | 16516 ft | 430 kts | 62° |
| 2026-05-05 12:46 | 28.74081 | -10.53447 | 17154 ft | 434 kts | 62° |
| 2026-05-05 12:46 | 28.75470 | -10.50365 | 17778 ft | 440 kts | 62° |
| 2026-05-05 12:47 | 28.76875 | -10.47247 | 18354 ft | 446 kts | 62° |
| 2026-05-05 12:47 | 28.78298 | -10.44086 | 18864 ft | 451 kts | 62° |
| 2026-05-05 12:47 | 28.79734 | -10.40894 | 19462 ft | 454 kts | 62° |
| 2026-05-05 12:47 | 28.81177 | -10.37681 | 20050 ft | 457 kts | 62° |
| 2026-05-05 12:48 | 28.82630 | -10.34445 | 20587 ft | 461 kts | 62° |
| 2026-05-05 12:48 | 28.84098 | -10.31174 | 21104 ft | 466 kts | 62° |
| 2026-05-05 12:48 | 28.85579 | -10.27873 | 21689 ft | 469 kts | 62° |
| 2026-05-05 12:48 | 28.87073 | -10.24538 | 22022 ft | 477 kts | 63° |
| 2026-05-05 12:49 | 28.88573 | -10.21186 | 21993 ft | 482 kts | 63° |
| 2026-05-05 12:49 | 28.90095 | -10.17784 | 21986 ft | 479 kts | 62° |
| 2026-05-05 12:49 | 28.91609 | -10.14398 | 21996 ft | 479 kts | 62° |
| 2026-05-05 12:49 | 28.93130 | -10.10995 | 22005 ft | 479 kts | 62° |
| 2026-05-05 12:50 | 28.94632 | -10.07634 | 22001 ft | 480 kts | 62° |
| 2026-05-05 12:50 | 28.96146 | -10.04240 | 22000 ft | 481 kts | 62° |
| 2026-05-05 12:50 | 28.97666 | -10.00830 | 22007 ft | 481 kts | 61° |
| 2026-05-05 12:50 | 28.99494 | -9.97684 | 21984 ft | 478 kts | 45° |
| 2026-05-05 12:51 | 29.01942 | -9.95174 | 22018 ft | 469 kts | 30° |
| 2026-05-05 12:51 | 29.04753 | -9.93369 | 21986 ft | 459 kts | 15° |
| 2026-05-05 12:51 | 29.07727 | -9.92125 | 22014 ft | 455 kts | 13° |
| 2026-05-05 12:51 | 29.10718 | -9.90896 | 21997 ft | 456 kts | 13° |
| 2026-05-05 12:52 | 29.13704 | -9.89655 | 21987 ft | 457 kts | 13° |
| 2026-05-05 12:52 | 29.16686 | -9.88399 | 21987 ft | 457 kts | 13° |
| 2026-05-05 12:52 | 29.19670 | -9.87128 | 22010 ft | 458 kts | 13° |
| 2026-05-05 12:52 | 29.22658 | -9.85846 | 21998 ft | 459 kts | 13° |
| 2026-05-05 12:53 | 29.25650 | -9.84558 | 21998 ft | 459 kts | 14° |
| 2026-05-05 12:53 | 29.28640 | -9.83268 | 22001 ft | 461 kts | 13° |
| 2026-05-05 12:53 | 29.31679 | -9.81961 | 22016 ft | 473 kts | 14° |
| 2026-05-05 12:53 | 29.34795 | -9.80622 | 22015 ft | 484 kts | 14° |
| 2026-05-05 12:54 | 29.41195 | -9.77862 | 22014 ft | 502 kts | 14° |
| 2026-05-05 12:54 | 29.44484 | -9.76438 | 22013 ft | 506 kts | 14° |
| 2026-05-05 12:54 | 29.47766 | -9.75011 | 22016 ft | 502 kts | 14° |
| 2026-05-05 12:55 | 29.51020 | -9.73599 | 22002 ft | 499 kts | 14° |
| 2026-05-05 12:55 | 29.54264 | -9.72196 | 22000 ft | 498 kts | 14° |
| 2026-05-05 12:55 | 29.57508 | -9.70794 | 22001 ft | 498 kts | 14° |
| 2026-05-05 12:55 | 29.60748 | -9.69390 | 22008 ft | 498 kts | 14° |
| 2026-05-05 12:56 | 29.63997 | -9.67981 | 21999 ft | 500 kts | 14° |
| 2026-05-05 12:56 | 29.67250 | -9.66564 | 21999 ft | 501 kts | 14° |
| 2026-05-05 12:56 | 29.70469 | -9.65159 | 22001 ft | 502 kts | 14° |
| 2026-05-05 12:56 | 29.73738 | -9.63732 | 21998 ft | 503 kts | 14° |
| 2026-05-05 12:57 | 29.77011 | -9.62306 | 22016 ft | 503 kts | 14° |
| 2026-05-05 12:57 | 29.80282 | -9.60880 | 22003 ft | 504 kts | 14° |
| 2026-05-05 12:57 | 29.83566 | -9.59450 | 21990 ft | 504 kts | 14° |
| 2026-05-05 12:57 | 29.86836 | -9.58026 | 21999 ft | 503 kts | 14° |
| 2026-05-05 12:58 | 29.90113 | -9.56596 | 21998 ft | 503 kts | 14° |
| 2026-05-05 12:58 | 29.93382 | -9.55167 | 21997 ft | 502 kts | 14° |
| 2026-05-05 12:58 | 29.96654 | -9.53741 | 21985 ft | 502 kts | 14° |
| 2026-05-05 12:58 | 29.99919 | -9.52321 | 21980 ft | 502 kts | 14° |
| 2026-05-05 12:59 | 30.03187 | -9.50902 | 21986 ft | 501 kts | 14° |
| 2026-05-05 12:59 | 30.06448 | -9.49488 | 22026 ft | 501 kts | 14° |
| 2026-05-05 12:59 | 30.09722 | -9.48068 | 21990 ft | 502 kts | 14° |
| 2026-05-05 13:00 | 30.16259 | -9.45231 | 21976 ft | 502 kts | 14° |
| 2026-05-05 13:00 | 30.19533 | -9.43808 | 21982 ft | 502 kts | 14° |
| 2026-05-05 13:01 | 30.29333 | -9.39531 | 21973 ft | 503 kts | 15° |
| 2026-05-05 13:01 | 30.32505 | -9.37749 | 21965 ft | 511 kts | 25° |
| 2026-05-05 13:01 | 30.35451 | -9.35396 | 21973 ft | 519 kts | 35° |
| 2026-05-05 13:01 | 30.38203 | -9.32688 | 21978 ft | 520 kts | 37° |
| 2026-05-05 13:02 | 30.40928 | -9.29939 | 21975 ft | 520 kts | 37° |
| 2026-05-05 13:02 | 30.43661 | -9.27190 | 21973 ft | 520 kts | 37° |
| 2026-05-05 13:02 | 30.46406 | -9.24462 | 21975 ft | 519 kts | 36° |
| 2026-05-05 13:02 | 30.49159 | -9.21760 | 21975 ft | 519 kts | 36° |
| 2026-05-05 13:03 | 30.51924 | -9.19064 | 21983 ft | 519 kts | 36° |
| 2026-05-05 13:03 | 30.54693 | -9.16370 | 21983 ft | 519 kts | 36° |
| 2026-05-05 13:03 | 30.57461 | -9.13676 | 21978 ft | 519 kts | 36° |
| 2026-05-05 13:03 | 30.60226 | -9.10981 | 21970 ft | 520 kts | 36° |
| 2026-05-05 13:04 | 30.62951 | -9.08315 | 21940 ft | 518 kts | 36° |
| 2026-05-05 13:04 | 30.65698 | -9.05633 | 22028 ft | 516 kts | 36° |
| 2026-05-05 13:04 | 30.68453 | -9.02942 | 22002 ft | 517 kts | 36° |
| 2026-05-05 13:04 | 30.71211 | -9.00249 | 21988 ft | 518 kts | 36° |
| 2026-05-05 13:05 | 30.73975 | -8.97554 | 21988 ft | 518 kts | 36° |
| 2026-05-05 13:05 | 30.76736 | -8.94860 | 21985 ft | 519 kts | 36° |
| 2026-05-05 13:05 | 30.79501 | -8.92161 | 22001 ft | 518 kts | 36° |
| 2026-05-05 13:05 | 30.82258 | -8.89470 | 22004 ft | 518 kts | 36° |
| 2026-05-05 13:06 | 30.85020 | -8.86772 | 21989 ft | 517 kts | 36° |
| 2026-05-05 13:06 | 30.87771 | -8.84081 | 21986 ft | 517 kts | 36° |
| 2026-05-05 13:06 | 30.90521 | -8.81384 | 22023 ft | 517 kts | 36° |
| 2026-05-05 13:06 | 30.93262 | -8.78654 | 22027 ft | 518 kts | 36° |
| 2026-05-05 13:07 | 30.95989 | -8.75911 | 22019 ft | 518 kts | 37° |
| 2026-05-05 13:07 | 30.98714 | -8.73162 | 22019 ft | 518 kts | 37° |
| 2026-05-05 13:07 | 31.01398 | -8.70452 | 21970 ft | 517 kts | 37° |
| 2026-05-05 13:07 | 31.04121 | -8.67709 | 22089 ft | 518 kts | 37° |
| 2026-05-05 13:08 | 31.06867 | -8.64947 | 22056 ft | 523 kts | 37° |
| 2026-05-05 13:08 | 31.09618 | -8.62182 | 22040 ft | 520 kts | 37° |
| 2026-05-05 13:08 | 31.12359 | -8.59424 | 22055 ft | 517 kts | 37° |
| 2026-05-05 13:08 | 31.15083 | -8.56677 | 22048 ft | 517 kts | 37° |
| 2026-05-05 13:09 | 31.17807 | -8.53932 | 22031 ft | 517 kts | 37° |
| 2026-05-05 13:09 | 31.20497 | -8.51220 | 22046 ft | 517 kts | 37° |
| 2026-05-05 13:09 | 31.23225 | -8.48466 | 22046 ft | 519 kts | 37° |
| 2026-05-05 13:09 | 31.25962 | -8.45712 | 22045 ft | 519 kts | 36° |
| 2026-05-05 13:10 | 31.28705 | -8.42966 | 22040 ft | 517 kts | 36° |
| 2026-05-05 13:10 | 31.31442 | -8.40231 | 22024 ft | 516 kts | 36° |
| 2026-05-05 13:10 | 31.34166 | -8.37511 | 22029 ft | 515 kts | 36° |
| 2026-05-05 13:10 | 31.36898 | -8.34782 | 22030 ft | 514 kts | 36° |
| 2026-05-05 13:11 | 31.39582 | -8.32099 | 22022 ft | 513 kts | 36° |
| 2026-05-05 13:11 | 31.42295 | -8.29383 | 22040 ft | 513 kts | 36° |
| 2026-05-05 13:11 | 31.45009 | -8.26664 | 22034 ft | 513 kts | 36° |
| 2026-05-05 13:11 | 31.47725 | -8.23940 | 22021 ft | 513 kts | 36° |
| 2026-05-05 13:12 | 31.50438 | -8.21218 | 22017 ft | 514 kts | 36° |
| 2026-05-05 13:12 | 31.53156 | -8.18490 | 22033 ft | 514 kts | 36° |
| 2026-05-05 13:12 | 31.55863 | -8.15765 | 22035 ft | 508 kts | 36° |
| 2026-05-05 13:12 | 31.58619 | -8.13252 | 22007 ft | 495 kts | 25° |
| 2026-05-05 13:13 | 31.60665 | -8.12105 | 22051 ft | 486 kts | 13° |
| 2026-05-05 13:13 | 31.64988 | -8.11087 | 22021 ft | 472 kts | 355° |
| 2026-05-05 13:13 | 31.68214 | -8.11348 | 22023 ft | 460 kts | 343° |
| 2026-05-05 13:13 | 31.71377 | -8.11977 | 22025 ft | 460 kts | 343° |
| 2026-05-05 13:14 | 31.74535 | -8.12612 | 22022 ft | 460 kts | 343° |
| 2026-05-05 13:14 | 31.77694 | -8.13237 | 22013 ft | 459 kts | 343° |
| 2026-05-05 13:14 | 31.80808 | -8.13835 | 22013 ft | 458 kts | 343° |
| 2026-05-05 13:14 | 31.82924 | -8.14233 | 22038 ft | 457 kts | 344° |
| 2026-05-05 13:15 | 31.87086 | -8.15006 | 22026 ft | 455 kts | 344° |
| 2026-05-05 13:15 | 31.90208 | -8.15580 | 22021 ft | 454 kts | 344° |
| 2026-05-05 13:15 | 31.92331 | -8.15971 | 22017 ft | 454 kts | 344° |
| 2026-05-05 13:15 | 31.96464 | -8.16733 | 22014 ft | 453 kts | 344° |
| 2026-05-05 13:16 | 31.98531 | -8.17116 | 22017 ft | 453 kts | 344° |
| 2026-05-05 13:16 | 32.02700 | -8.17892 | 22027 ft | 453 kts | 344° |
| 2026-05-05 13:16 | 32.05778 | -8.18464 | 22022 ft | 454 kts | 344° |
| 2026-05-05 13:16 | 32.08905 | -8.19042 | 22045 ft | 454 kts | 345° |
| 2026-05-05 13:17 | 32.12055 | -8.19502 | 22027 ft | 460 kts | 351° |
| 2026-05-05 13:17 | 32.15285 | -8.19392 | 22028 ft | 469 kts | 0° |
| 2026-05-05 13:17 | 32.18533 | -8.18863 | 21798 ft | 471 kts | 2° |
| 2026-05-05 13:17 | 32.20689 | -8.18478 | 21633 ft | 471 kts | 2° |
| 2026-05-05 13:18 | 32.23934 | -8.17889 | 21377 ft | 472 kts | 2° |
| 2026-05-05 13:18 | 32.27185 | -8.17313 | 21128 ft | 474 kts | 2° |
| 2026-05-05 13:18 | 32.31511 | -8.16575 | 20677 ft | 475 kts | 2° |
| 2026-05-05 13:18 | 32.34783 | -8.16033 | 20220 ft | 470 kts | 2° |
| 2026-05-05 13:19 | 32.36943 | -8.15676 | 20102 ft | 456 kts | 2° |
| 2026-05-05 13:19 | 32.39911 | -8.15184 | 19919 ft | 429 kts | 2° |
| 2026-05-05 13:19 | 32.42782 | -8.14709 | 19759 ft | 404 kts | 2° |
| 2026-05-05 13:19 | 32.45493 | -8.14265 | 19483 ft | 386 kts | 1° |
| 2026-05-05 13:20 | 32.48117 | -8.13843 | 18815 ft | 382 kts | 1° |
| 2026-05-05 13:20 | 32.50755 | -8.13425 | 17936 ft | 383 kts | 1° |
| 2026-05-05 13:20 | 32.53391 | -8.13002 | 17249 ft | 377 kts | 1° |
| 2026-05-05 13:20 | 32.55944 | -8.12588 | 16658 ft | 370 kts | 1° |
| 2026-05-05 13:21 | 32.58461 | -8.12178 | 16173 ft | 360 kts | 1° |
| 2026-05-05 13:21 | 32.60907 | -8.11779 | 15738 ft | 352 kts | 1° |
| 2026-05-05 13:21 | 32.63337 | -8.11386 | 15358 ft | 350 kts | 1° |
| 2026-05-05 13:21 | 32.65751 | -8.10997 | 14942 ft | 349 kts | 2° |
| 2026-05-05 13:22 | 32.68161 | -8.10604 | 14542 ft | 348 kts | 2° |
| 2026-05-05 13:22 | 32.70532 | -8.10214 | 14120 ft | 348 kts | 2° |
| 2026-05-05 13:22 | 32.72928 | -8.09821 | 13744 ft | 346 kts | 2° |
| 2026-05-05 13:22 | 32.75309 | -8.09430 | 13359 ft | 343 kts | 2° |
| 2026-05-05 13:23 | 32.77669 | -8.09045 | 12951 ft | 341 kts | 2° |
| 2026-05-05 13:23 | 32.80022 | -8.08663 | 12541 ft | 339 kts | 2° |
| 2026-05-05 13:23 | 32.82331 | -8.08289 | 12140 ft | 338 kts | 3° |
| 2026-05-05 13:23 | 32.84654 | -8.07912 | 11742 ft | 336 kts | 3° |
| 2026-05-05 13:24 | 32.86975 | -8.07533 | 11339 ft | 335 kts | 3° |
| 2026-05-05 13:24 | 32.89281 | -8.07155 | 10935 ft | 333 kts | 4° |
| 2026-05-05 13:24 | 32.91541 | -8.06556 | 10674 ft | 334 kts | 20° |
| 2026-05-05 13:24 | 32.93422 | -8.04973 | 10527 ft | 331 kts | 45° |
| 2026-05-05 13:25 | 32.94661 | -8.02744 | 10400 ft | 324 kts | 65° |
| 2026-05-05 13:25 | 32.95499 | -8.00284 | 10260 ft | 316 kts | 69° |
| 2026-05-05 13:25 | 32.96268 | -7.97859 | 10119 ft | 309 kts | 69° |
| 2026-05-05 13:25 | 32.97014 | -7.95487 | 9909 ft | 305 kts | 69° |
| 2026-05-05 13:26 | 32.97766 | -7.93123 | 9576 ft | 304 kts | 69° |
| 2026-05-05 13:26 | 32.98513 | -7.90798 | 9299 ft | 302 kts | 69° |
| 2026-05-05 13:26 | 32.99268 | -7.88466 | 9000 ft | 300 kts | 69° |
| 2026-05-05 13:26 | 33.00021 | -7.86148 | 8709 ft | 299 kts | 69° |
| 2026-05-05 13:27 | 33.00776 | -7.83834 | 8401 ft | 298 kts | 69° |
| 2026-05-05 13:27 | 33.01526 | -7.81537 | 8115 ft | 297 kts | 69° |
| 2026-05-05 13:27 | 33.02268 | -7.79263 | 7826 ft | 297 kts | 69° |
| 2026-05-05 13:27 | 33.03015 | -7.76971 | 7529 ft | 296 kts | 69° |
| 2026-05-05 13:28 | 33.03757 | -7.74689 | 7237 ft | 295 kts | 69° |
| 2026-05-05 13:28 | 33.04499 | -7.72408 | 6947 ft | 295 kts | 69° |
| 2026-05-05 13:28 | 33.05242 | -7.70120 | 6654 ft | 295 kts | 69° |
| 2026-05-05 13:28 | 33.05982 | -7.67838 | 6344 ft | 295 kts | 69° |
| 2026-05-05 13:29 | 33.06713 | -7.65583 | 6045 ft | 293 kts | 69° |
| 2026-05-05 13:29 | 33.07444 | -7.63332 | 5844 ft | 288 kts | 69° |
| 2026-05-05 13:29 | 33.08157 | -7.61136 | 5705 ft | 278 kts | 69° |
| 2026-05-05 13:29 | 33.08839 | -7.59035 | 5576 ft | 264 kts | 69° |
| 2026-05-05 13:30 | 33.09486 | -7.57038 | 5455 ft | 251 kts | 69° |
| 2026-05-05 13:30 | 33.10085 | -7.55187 | 5383 ft | 233 kts | 69° |
| 2026-05-05 13:30 | 33.10659 | -7.53407 | 5246 ft | 224 kts | 69° |
| 2026-05-05 13:30 | 33.11402 | -7.51863 | 5216 ft | 213 kts | 40° |
| 2026-05-05 13:31 | 33.12722 | -7.51219 | 5139 ft | 209 kts | 359° |
| 2026-05-05 13:31 | 33.14157 | -7.51534 | 4889 ft | 210 kts | 345° |
| 2026-05-05 13:31 | 33.15569 | -7.51958 | 4599 ft | 206 kts | 346° |
| 2026-05-05 13:31 | 33.16934 | -7.52398 | 4320 ft | 200 kts | 345° |
| 2026-05-05 13:32 | 33.18245 | -7.52842 | 4067 ft | 194 kts | 345° |
| 2026-05-05 13:32 | 33.19498 | -7.53272 | 3817 ft | 182 kts | 345° |
| 2026-05-05 13:32 | 33.20690 | -7.53683 | 3579 ft | 174 kts | 344° |
| 2026-05-05 13:32 | 33.21841 | -7.54081 | 3367 ft | 170 kts | 345° |
| 2026-05-05 13:33 | 33.22990 | -7.54476 | 3116 ft | 172 kts | 346° |
| 2026-05-05 13:33 | 33.24106 | -7.54858 | 2886 ft | 165 kts | 345° |
| 2026-05-05 13:33 | 33.25168 | -7.55224 | 2679 ft | 157 kts | 345° |
| 2026-05-05 13:33 | 33.26211 | -7.55585 | 2483 ft | 156 kts | 346° |
| 2026-05-05 13:34 | 33.27264 | -7.55947 | 2310 ft | 154 kts | 345° |
| 2026-05-05 13:34 | 33.28285 | -7.56295 | 2040 ft | 150 kts | 346° |
| 2026-05-05 13:34 | 33.29240 | -7.56626 | 1854 ft | 140 kts | 345° |
| 2026-05-05 13:34 | 33.30161 | -7.56946 | 1699 ft | 140 kts | 346° |
| 2026-05-05 13:35 | 33.31103 | -7.57271 | 1478 ft | 140 kts | 347° |
| 2026-05-05 13:35 | 33.32021 | -7.57586 | 1295 ft | 137 kts | 347° |
| 2026-05-05 13:35 | 33.32943 | -7.57899 | 1137 ft | 136 kts | 347° |
| 2026-05-05 13:35 | 33.33862 | -7.58219 | 899 ft | 141 kts | 347° |
| 2026-05-05 13:36 | 33.34820 | -7.58549 | 750 ft | 144 kts | 347° |
| 2026-05-05 13:36 | 33.35736 | -7.58855 | 651 ft | 128 kts | 348° |
| 2026-05-05 13:36 | 33.36477 | -7.59111 | 650 ft | 93 kts | 343° |
| 2026-05-05 13:36 | 33.36985 | -7.59290 | 651 ft | 59 kts | 344° |
| 2026-05-05 13:37 | 33.37312 | -7.59400 | 655 ft | 45 kts | 343° |
| 2026-05-05 13:37 | 33.37594 | -7.59496 | 652 ft | 34 kts | 344° |
| 2026-05-05 13:37 | 33.37729 | -7.59453 | 650 ft | 22 kts | 73° |
| 2026-05-05 13:37 | 33.37771 | -7.59279 | 648 ft | 21 kts | 75° |
| 2026-05-05 13:38 | 33.37813 | -7.59104 | 644 ft | 22 kts | 73° |
| 2026-05-05 13:38 | 33.37854 | -7.58935 | 650 ft | 13 kts | 73° |
| 2026-05-05 13:38 | 33.37855 | -7.58931 | 651 ft | 0 kts | 73° |
| 2026-05-05 13:39 | 33.37862 | -7.58907 | 654 ft | 7 kts | 73° |
| 2026-05-05 13:39 | 33.37879 | -7.58834 | 653 ft | 10 kts | 73° |
| 2026-05-05 13:40 | 33.37897 | -7.58758 | 652 ft | 9 kts | 73° |
| 2026-05-05 13:40 | 33.37910 | -7.58684 | 652 ft | 9 kts | 89° |
| 2026-05-05 13:40 | 33.37885 | -7.58616 | 652 ft | 9 kts | 125° |
| 2026-05-05 13:40 | 33.37844 | -7.58548 | 652 ft | 11 kts | 126° |
| 2026-05-05 13:41 | 33.37787 | -7.58484 | 652 ft | 11 kts | 153° |
| 2026-05-05 13:41 | 33.37705 | -7.58454 | 652 ft | 13 kts | 165° |
| 2026-05-05 13:41 | 33.37617 | -7.58438 | 652 ft | 13 kts | 178° |
| 2026-05-05 13:41 | 33.37537 | -7.58422 | 652 ft | 11 kts | 190° |
| 2026-05-05 13:42 | 33.37503 | -7.58478 | 652 ft | 6 kts | 238° |
| 2026-05-05 13:42 | 33.37486 | -7.58475 | 652 ft | 3 kts | 138° |
| 2026-05-05 13:42 | 33.37477 | -7.58461 | 652 ft | 0 kts | 126° |